This demonstration page uses our WeatherBlox Daily Observations layout. Learn more.

36.17497, -115.13722

Hourly Observations for June 28, 2015

Temp ( °F °C ) Dew Point ( °F °C ) Humidity (%) Winds ( mph kmh ) Pressure ( in mb ) Visibility ( mi km ) Precip ( " mm )
12:53 am 00:53 Clear 93 33.9 35 1.7 13 13 S 6 9 29.8 1009 10 16.0934 0 0
1:53 am 01:53 Clear 95 35 34 1.1 12 12 S 7 11 29.81 1009 10 16.0934 0 0
2:53 am 02:53 Clear 95 35 33 0.6 11 11 S 16 26 29.81 1010 10 16.0934 0 0
3:53 am 03:53 Clear 93 33.9 35 1.7 13 13 S 12 19 29.83 1010 10 16.0934 0 0
4:53 am 04:53 Clear 90 32.2 37 2.8 15 15 SE 7 11 29.84 1011 10 16.0934 0 0
5:53 am 05:53 Sunny 88 31.1 38 3.3 17 17 SE 5 7 29.86 1011 10 16.0934 0 0
6:53 am 06:53 Sunny 90 32.2 47 8.3 23 23 E 8 13 29.88 1012 10 16.0934 0 0
7:53 am 07:53 Sunny 92 33.3 48 8.9 22 22 E 8 13 29.9 1013 10 16.0934 0 0
8:53 am 08:53 Sunny 95 35 41 5 15 15 SE 6 9 29.9 1013 10 16.0934 0 0
9:53 am 09:53 Sunny 97 36.1 41 5 14 14 Calm 29.9 1012 10 16.0934 0 0
10:53 am 10:53 Sunny 99 37.2 41 5 14 14 S 3 6 29.89 1012 10 16.0934 0 0
11:53 am 11:53 Sunny 102 38.9 41 5 12 12 VRB 3 6 29.88 1012 10 16.0934 0 0
12:53 pm 12:53 Sunny 105 40.6 41 5 11 11 ESE 6 9 29.85 1011 10 16.0934 0 0
1:53 pm 13:53 Sunny 107 41.7 42 5.6 11 11 S 10 17 29.83 1010 10 16.0934 0 0
2:53 pm 14:53 Sunny 107 41.7 43 6.1 11 11 SSE 13 20 29.8 1009 10 16.0934 0 0
3:53 pm 15:53 Sunny 107 41.7 43 6.1 11 11 SW 12 19 29.77 1008 10 16.0934 0 0
4:53 pm 16:53 Sunny 107 41.7 43 6.1 11 11 undefined N/A 29.76 1008 10 16.0934 0 0
6:53 pm 18:53 Sunny 104 40 42 5.6 12 12 WSW 14 22 29.78 1008 10 16.0934 0 0
7:53 pm 19:53 Sunny 103 39.4 42 5.6 12 12 W 7 11 29.78 1009 10 16.0934 0 0
8:53 pm 20:53 Clear 100 37.8 45 7.2 15 15 W 14 22 29.79 1009 10 16.0934 0 0
9:53 pm 21:53 Clear 99 37.2 45 7.2 16 16 W 8 13 29.8 1009 10 16.0934 0 0
10:53 pm 22:53 Clear 99 37.2 45 7.2 16 16 N 3 6 29.81 1010 10 16.0934 0 0
11:53 pm 23:53 Clear 98 36.7 46 7.8 17 17 WNW 5 7 29.82 1010 10 16.0934 0 0

Powered by AerisWeather